sensor_id;sensor_type;location;lat;lon;timestamp;pressure;altitude;pressure_sealevel;temperature;humidity
12763;BME280;6445;52.490;13.378;2023-04-26T00:01:38;52146.00;;;-146.10;95.49
12763;BME280;6445;52.490;13.378;2023-04-26T00:04:04;52144.00;;;-146.10;94.70
12763;BME280;6445;52.490;13.378;2023-04-26T00:06:29;52142.00;;;-146.10;95.53
12763;BME280;6445;52.490;13.378;2023-04-26T00:08:54;52184.03;;;-146.10;96.56
12763;BME280;6445;52.490;13.378;2023-04-26T00:11:20;52284.03;;;-146.10;97.64
12763;BME280;6445;52.490;13.378;2023-04-26T00:13:45;52346.06;;;-146.10;98.07
12763;BME280;6445;52.490;13.378;2023-04-26T00:16:12;52424.09;;;-146.10;99.19
12763;BME280;6445;52.490;13.378;2023-04-26T00:18:37;52492.13;;;-146.10;99.47
12763;BME280;6445;52.490;13.378;2023-04-26T00:21:03;52484.13;;;-146.10;99.17
12763;BME280;6445;52.490;13.378;2023-04-26T00:23:28;52486.13;;;-146.10;99.77
12763;BME280;6445;52.490;13.378;2023-04-26T00:25:55;52572.16;;;-146.10;100.00
12763;BME280;6445;52.490;13.378;2023-04-26T00:28:20;52680.19;;;-146.10;100.00
12763;BME280;6445;52.490;13.378;2023-04-26T00:30:46;52808.25;;;-146.10;100.00
12763;BME280;6445;52.490;13.378;2023-04-26T00:33:13;52960.31;;;-146.10;100.00
12763;BME280;6445;52.490;13.378;2023-04-26T00:35:38;53140.41;;;-146.10;100.00
12763;BME280;6445;52.490;13.378;2023-04-26T00:38:03;53184.44;;;-146.10;100.00
12763;BME280;6445;52.490;13.378;2023-04-26T00:40:29;53198.44;;;-146.10;100.00
12763;BME280;6445;52.490;13.378;2023-04-26T00:42:58;53308.50;;;-146.10;100.00
12763;BME280;6445;52.490;13.378;2023-04-26T00:45:23;53302.50;;;-146.10;100.00
12763;BME280;6445;52.490;13.378;2023-04-26T00:47:49;53224.47;;;-146.10;100.00
12763;BME280;6445;52.490;13.378;2023-04-26T00:50:14;53328.53;;;-146.10;100.00
12763;BME280;6445;52.490;13.378;2023-04-26T00:52:40;53568.66;;;-146.10;100.00
12763;BME280;6445;52.490;13.378;2023-04-26T00:55:06;53752.78;;;-146.10;100.00
12763;BME280;6445;52.490;13.378;2023-04-26T00:57:32;53868.88;;;-146.10;100.00
12763;BME280;6445;52.490;13.378;2023-04-26T00:59:57;54010.97;;;-146.10;100.00
12763;BME280;6445;52.490;13.378;2023-04-26T01:02:22;54213.13;;;-146.10;100.00
12763;BME280;6445;52.490;13.378;2023-04-26T01:04:48;54445.31;;;-146.10;100.00
12763;BME280;6445;52.490;13.378;2023-04-26T01:07:13;54581.44;;;-146.10;100.00
12763;BME280;6445;52.490;13.378;2023-04-26T01:09:39;54735.59;;;-146.10;100.00
12763;BME280;6445;52.490;13.378;2023-04-26T01:12:06;55001.84;;;-146.10;100.00
12763;BME280;6445;52.490;13.378;2023-04-26T01:14:32;55172.03;;;-146.10;100.00
12763;BME280;6445;52.490;13.378;2023-04-26T01:16:58;55432.31;;;-146.10;100.00
12763;BME280;6445;52.490;13.378;2023-04-26T01:19:23;55340.19;;;-146.10;100.00
12763;BME280;6445;52.490;13.378;2023-04-26T01:21:49;55370.22;;;-146.10;100.00
12763;BME280;6445;52.490;13.378;2023-04-26T01:24:15;55450.31;;;-146.10;100.00
12763;BME280;6445;52.490;13.378;2023-04-26T01:26:41;55612.50;;;-146.10;100.00
12763;BME280;6445;52.490;13.378;2023-04-26T01:29:19;55846.78;;;-146.10;100.00
12763;BME280;6445;52.490;13.378;2023-04-26T01:31:45;56229.28;;;-146.10;100.00
12763;BME280;6445;52.490;13.378;2023-04-26T01:34:12;56439.56;;;-146.10;100.00
12763;BME280;6445;52.490;13.378;2023-04-26T01:36:37;57014.38;;;-146.10;100.00
12763;BME280;6445;52.490;13.378;2023-04-26T01:39:03;56888.19;;;-146.10;100.00
12763;BME280;6445;52.490;13.378;2023-04-26T01:41:28;56994.34;;;-146.10;100.00
12763;BME280;6445;52.490;13.378;2023-04-26T01:43:53;57156.59;;;-146.10;100.00
12763;BME280;6445;52.490;13.378;2023-04-26T01:46:19;57384.97;;;-146.10;100.00
12763;BME280;6445;52.490;13.378;2023-04-26T01:48:45;57212.69;;;-146.10;100.00
12763;BME280;6445;52.490;13.378;2023-04-26T01:51:11;57358.91;;;-146.10;100.00
12763;BME280;6445;52.490;13.378;2023-04-26T01:53:36;57455.06;;;-146.10;100.00
12763;BME280;6445;52.490;13.378;2023-04-26T01:56:02;57673.44;;;-146.10;100.00
12763;BME280;6445;52.490;13.378;2023-04-26T01:58:28;57541.22;;;-146.10;100.00
12763;BME280;6445;52.490;13.378;2023-04-26T02:00:53;57659.41;;;-146.10;100.00
12763;BME280;6445;52.490;13.378;2023-04-26T02:03:19;58092.16;;;-146.10;100.00
12763;BME280;6445;52.490;13.378;2023-04-26T02:05:45;59118.13;;;-146.10;100.00
12763;BME280;6445;52.490;13.378;2023-04-26T02:08:10;59488.88;;;-146.10;100.00
12763;BME280;6445;52.490;13.378;2023-04-26T02:10:35;59607.16;;;-146.10;100.00
12763;BME280;6445;52.490;13.378;2023-04-26T02:13:01;59835.66;;;-146.10;100.00
12763;BME280;6445;52.490;13.378;2023-04-26T02:15:26;60623.47;;;-146.10;100.00
12763;BME280;6445;52.490;13.378;2023-04-26T02:17:51;61341.28;;;-146.10;100.00
12763;BME280;6445;52.490;13.378;2023-04-26T02:20:18;61461.59;;;-146.10;100.00
12763;BME280;6445;52.490;13.378;2023-04-26T02:22:43;61900.75;;;-146.10;100.00
12763;BME280;6445;52.490;13.378;2023-04-26T02:25:09;62175.53;;;-146.10;100.00
12763;BME280;6445;52.490;13.378;2023-04-26T02:27:35;62516.50;;;-146.10;100.00
12763;BME280;6445;52.490;13.378;2023-04-26T02:30:01;63080.16;;;-146.10;100.00
12763;BME280;6445;52.490;13.378;2023-04-26T02:32:26;63979.00;;;-146.10;100.00
12763;BME280;6445;52.490;13.378;2023-04-26T02:34:51;64767.66;;;-146.10;100.00
12763;BME280;6445;52.490;13.378;2023-04-26T02:37:17;65301.53;;;-146.10;100.00
12763;BME280;6445;52.490;13.378;2023-04-26T02:39:42;65961.97;;;-146.10;100.00
12763;BME280;6445;52.490;13.378;2023-04-26T02:42:08;66112.53;;;-146.10;100.00
12763;BME280;6445;52.490;13.378;2023-04-26T02:44:34;66706.81;;;-146.10;100.00
12763;BME280;6445;52.490;13.378;2023-04-26T02:47:00;66949.78;;;-146.10;100.00
12763;BME280;6445;52.490;13.378;2023-04-26T02:49:25;67389.56;;;-146.10;100.00
12763;BME280;6445;52.490;13.378;2023-04-26T02:51:50;67524.13;;;-146.10;100.00
12763;BME280;6445;52.490;13.378;2023-04-26T02:54:15;68172.88;;;-146.10;100.00
12763;BME280;6445;52.490;13.378;2023-04-26T02:56:41;68904.09;;;-146.10;100.00
12763;BME280;6445;52.490;13.378;2023-04-26T02:59:06;69573.16;;;-146.10;100.00
12763;BME280;6445;52.490;13.378;2023-04-26T03:01:31;70184.03;;;-146.10;100.00
12763;BME280;6445;52.490;13.378;2023-04-26T03:03:57;70573.94;;;-146.10;100.00
12763;BME280;6445;52.490;13.378;2023-04-26T03:06:22;70799.03;;;-146.10;100.00
12763;BME280;6445;52.490;13.378;2023-04-26T03:08:47;70923.66;;;-146.10;100.00
12763;BME280;6445;52.490;13.378;2023-04-26T03:11:12;70634.22;;;-146.10;100.00
12763;BME280;6445;52.490;13.378;2023-04-26T03:13:38;71000.06;;;-146.10;100.00
12763;BME280;6445;52.490;13.378;2023-04-26T03:16:03;71335.75;;;-146.10;100.00
12763;BME280;6445;52.490;13.378;2023-04-26T03:18:28;71641.31;;;-146.10;100.00
12763;BME280;6445;52.490;13.378;2023-04-26T03:20:54;71675.50;;;-146.10;100.00
12763;BME280;6445;52.490;13.378;2023-04-26T03:23:19;71772.00;;;-146.10;100.00
12763;BME280;6445;52.490;13.378;2023-04-26T03:25:48;73306.28;;;-146.10;100.00
12763;BME280;6445;52.490;13.378;2023-04-26T03:28:13;73962.00;;;-146.10;100.00
12763;BME280;6445;52.490;13.378;2023-04-26T03:30:38;73875.50;;;-146.10;100.00
12763;BME280;6445;52.490;13.378;2023-04-26T03:33:03;73483.25;;;-146.10;100.00
12763;BME280;6445;52.490;13.378;2023-04-26T03:35:29;72813.56;;;-146.10;100.00
12763;BME280;6445;52.490;13.378;2023-04-26T03:37:54;72204.25;;;-146.10;100.00
12763;BME280;6445;52.490;13.378;2023-04-26T03:40:19;72638.59;;;-146.10;100.00
12763;BME280;6445;52.490;13.378;2023-04-26T03:42:45;72186.16;;;-146.10;100.00
12763;BME280;6445;52.490;13.378;2023-04-26T03:45:10;72137.91;;;-146.10;100.00
12763;BME280;6445;52.490;13.378;2023-04-26T03:47:35;71271.41;;;-146.10;100.00
12763;BME280;6445;52.490;13.378;2023-04-26T03:50:00;71679.50;;;-146.10;100.00
12763;BME280;6445;52.490;13.378;2023-04-26T03:52:26;71217.13;;;-146.10;100.00
12763;BME280;6445;52.490;13.378;2023-04-26T03:54:51;70348.84;;;-146.10;100.00
12763;BME280;6445;52.490;13.378;2023-04-26T03:57:16;69693.72;;;-146.10;100.00
12763;BME280;6445;52.490;13.378;2023-04-26T03:59:41;68488.25;;;-146.10;100.00
12763;BME280;6445;52.490;13.378;2023-04-26T04:02:07;67570.31;;;-146.10;100.00
12763;BME280;6445;52.490;13.378;2023-04-26T04:04:32;67516.09;;;-146.10;100.00
12763;BME280;6445;52.490;13.378;2023-04-26T04:06:58;66098.47;;;-146.10;100.00
12763;BME280;6445;52.490;13.378;2023-04-26T04:09:23;65257.38;;;-146.10;100.00
12763;BME280;6445;52.490;13.378;2023-04-26T04:11:49;64366.28;;;-146.10;100.00
12763;BME280;6445;52.490;13.378;2023-04-26T04:14:14;63509.50;;;-146.10;100.00
12763;BME280;6445;52.490;13.378;2023-04-26T04:16:39;62973.84;;;-146.10;100.00
12763;BME280;6445;52.490;13.378;2023-04-26T04:19:05;62588.72;;;-146.10;100.00
12763;BME280;6445;52.490;13.378;2023-04-26T04:21:30;61603.97;;;-146.10;100.00
12763;BME280;6445;52.490;13.378;2023-04-26T04:23:56;61108.69;;;-146.10;100.00
12763;BME280;6445;52.490;13.378;2023-04-26T04:26:21;60819.94;;;-146.10;100.00
12763;BME280;6445;52.490;13.378;2023-04-26T04:28:46;60481.13;;;-146.10;100.00
12763;BME280;6445;52.490;13.378;2023-04-26T04:31:12;59751.47;;;-146.10;100.00
12763;BME280;6445;52.490;13.378;2023-04-26T04:33:38;59332.56;;;-146.10;100.00
12763;BME280;6445;52.490;13.378;2023-04-26T04:36:03;58645.19;;;-146.10;100.00
12763;BME280;6445;52.490;13.378;2023-04-26T04:38:29;58046.06;;;-146.10;100.00
12763;BME280;6445;52.490;13.378;2023-04-26T04:40:55;57669.44;;;-146.10;100.00
12763;BME280;6445;52.490;13.378;2023-04-26T04:43:21;57290.81;;;-146.10;100.00
12763;BME280;6445;52.490;13.378;2023-04-26T04:45:47;56721.94;;;-146.10;100.00
12763;BME280;6445;52.490;13.378;2023-04-26T04:48:13;56457.56;;;-146.10;100.00
12763;BME280;6445;52.490;13.378;2023-04-26T04:50:38;56043.03;;;-146.10;100.00
12763;BME280;6445;52.490;13.378;2023-04-26T04:53:04;55860.81;;;-146.10;100.00
12763;BME280;6445;52.490;13.378;2023-04-26T04:55:29;55618.50;;;-146.10;100.00
12763;BME280;6445;52.490;13.378;2023-04-26T04:57:54;55103.94;;;-146.10;100.00
12763;BME280;6445;52.490;13.378;2023-04-26T05:00:20;54613.47;;;-146.10;100.00
12763;BME280;6445;52.490;13.378;2023-04-26T05:02:45;54533.41;;;-146.10;100.00
12763;BME280;6445;52.490;13.378;2023-04-26T05:05:11;54419.31;;;-146.10;100.00
12763;BME280;6445;52.490;13.378;2023-04-26T05:07:36;53956.94;;;-146.10;100.00
12763;BME280;6445;52.490;13.378;2023-04-26T05:10:02;53650.72;;;-146.10;100.00
12763;BME280;6445;52.490;13.378;2023-04-26T05:12:27;53320.50;;;-146.10;100.00
12763;BME280;6445;52.490;13.378;2023-04-26T05:14:52;52744.22;;;-146.10;100.00
12763;BME280;6445;52.490;13.378;2023-04-26T05:17:17;51769.91;;;-146.10;100.00
12763;BME280;6445;52.490;13.378;2023-04-26T05:19:43;51367.88;;;-146.10;97.87
12763;BME280;6445;52.490;13.378;2023-04-26T05:22:08;51515.88;;;-146.10;92.60
12763;BME280;6445;52.490;13.378;2023-04-26T05:24:33;51613.88;;;-146.10;87.15
12763;BME280;6445;52.490;13.378;2023-04-26T05:26:58;51663.91;;;-146.10;82.58
12763;BME280;6445;52.490;13.378;2023-04-26T05:29:28;51719.91;;;-146.10;79.64
12763;BME280;6445;52.490;13.378;2023-04-26T05:31:53;51753.91;;;-146.10;81.76
12763;BME280;6445;52.490;13.378;2023-04-26T05:34:19;51749.91;;;-146.10;76.29
12763;BME280;6445;52.490;13.378;2023-04-26T05:36:44;51773.91;;;-146.10;76.70
12763;BME280;6445;52.490;13.378;2023-04-26T05:39:09;51755.91;;;-146.10;77.36
12763;BME280;6445;52.490;13.378;2023-04-26T05:41:36;51791.91;;;-146.10;74.35
12763;BME280;6445;52.490;13.378;2023-04-26T05:44:01;51811.94;;;-146.10;67.67
12763;BME280;6445;52.490;13.378;2023-04-26T05:46:26;51779.91;;;-146.10;71.41
12763;BME280;6445;52.490;13.378;2023-04-26T05:48:52;51803.94;;;-146.10;68.83
12763;BME280;6445;52.490;13.378;2023-04-26T05:51:17;51811.94;;;-146.10;68.16
12763;BME280;6445;52.490;13.378;2023-04-26T05:53:42;51827.94;;;-146.10;70.21
12763;BME280;6445;52.490;13.378;2023-04-26T05:56:08;51799.94;;;-146.10;67.96
12763;BME280;6445;52.490;13.378;2023-04-26T05:58:33;51787.91;;;-146.10;68.42
12763;BME280;6445;52.490;13.378;2023-04-26T06:00:58;51853.94;;;-146.10;65.58
12763;BME280;6445;52.490;13.378;2023-04-26T06:03:23;51849.94;;;-146.10;60.43
12763;BME280;6445;52.490;13.378;2023-04-26T06:05:48;51855.94;;;-146.10;61.81
12763;BME280;6445;52.490;13.378;2023-04-26T06:08:14;51847.94;;;-146.10;60.47
12763;BME280;6445;52.490;13.378;2023-04-26T06:10:39;51861.94;;;-146.10;60.23
12763;BME280;6445;52.490;13.378;2023-04-26T06:13:05;51869.94;;;-146.10;59.07
12763;BME280;6445;52.490;13.378;2023-04-26T06:15:30;51907.94;;;-146.10;56.60
12763;BME280;6445;52.490;13.378;2023-04-26T06:17:56;51879.94;;;-146.10;56.47
12763;BME280;6445;52.490;13.378;2023-04-26T06:20:21;51869.94;;;-146.10;57.58
12763;BME280;6445;52.490;13.378;2023-04-26T06:22:47;51881.94;;;-146.10;57.22
12763;BME280;6445;52.490;13.378;2023-04-26T06:25:12;51871.94;;;-146.10;57.91
12763;BME280;6445;52.490;13.378;2023-04-26T06:27:37;51889.94;;;-146.10;55.37
12763;BME280;6445;52.490;13.378;2023-04-26T06:30:04;51901.94;;;-146.10;52.53
12763;BME280;6445;52.490;13.378;2023-04-26T06:32:30;51927.94;;;-146.10;51.16
12763;BME280;6445;52.490;13.378;2023-04-26T06:34:55;51925.94;;;-146.10;50.97
12763;BME280;6445;52.490;13.378;2023-04-26T06:37:20;51933.94;;;-146.10;50.24
12763;BME280;6445;52.490;13.378;2023-04-26T06:39:45;51955.97;;;-146.10;48.94
12763;BME280;6445;52.490;13.378;2023-04-26T06:42:11;51927.94;;;-146.10;48.43
12763;BME280;6445;52.490;13.378;2023-04-26T06:44:36;51939.94;;;-146.10;46.61
12763;BME280;6445;52.490;13.378;2023-04-26T06:47:01;51947.97;;;-146.10;47.13
12763;BME280;6445;52.490;13.378;2023-04-26T06:49:26;51943.97;;;-146.10;47.15
12763;BME280;6445;52.490;13.378;2023-04-26T06:51:52;51981.97;;;-146.10;44.63
12763;BME280;6445;52.490;13.378;2023-04-26T06:54:18;52021.97;;;-146.10;41.00
12763;BME280;6445;52.490;13.378;2023-04-26T06:56:43;51927.94;;;-146.10;44.05
12763;BME280;6445;52.490;13.378;2023-04-26T06:59:09;51903.94;;;-146.10;49.59
12763;BME280;6445;52.490;13.378;2023-04-26T07:01:34;51895.94;;;-146.10;52.96
12763;BME280;6445;52.490;13.378;2023-04-26T07:04:03;51903.94;;;-146.10;49.86
12763;BME280;6445;52.490;13.378;2023-04-26T07:06:31;51879.94;;;-146.10;55.22
12763;BME280;6445;52.490;13.378;2023-04-26T07:08:57;51935.94;;;-146.10;52.20
12763;BME280;6445;52.490;13.378;2023-04-26T07:11:23;51941.94;;;-146.10;48.38
12763;BME280;6445;52.490;13.378;2023-04-26T07:13:48;51963.97;;;-146.10;45.41
12763;BME280;6445;52.490;13.378;2023-04-26T07:16:13;52001.97;;;-146.10;43.51
12763;BME280;6445;52.490;13.378;2023-04-26T07:18:39;52037.97;;;-146.10;40.28
12763;BME280;6445;52.490;13.378;2023-04-26T07:21:05;52053.97;;;-146.10;38.63
12763;BME280;6445;52.490;13.378;2023-04-26T07:23:31;52063.97;;;-146.10;37.62
12763;BME280;6445;52.490;13.378;2023-04-26T07:25:56;52156.00;;;-146.10;34.70
12763;BME280;6445;52.490;13.378;2023-04-26T07:28:21;51995.97;;;-146.10;37.75
12763;BME280;6445;52.490;13.378;2023-04-26T07:30:47;51973.97;;;-146.10;40.36
12763;BME280;6445;52.490;13.378;2023-04-26T07:33:12;52142.00;;;-146.10;36.08
12763;BME280;6445;52.490;13.378;2023-04-26T07:35:37;52116.00;;;-146.10;35.03
12763;BME280;6445;52.490;13.378;2023-04-26T07:38:02;52182.03;;;-146.10;32.98
12763;BME280;6445;52.490;13.378;2023-04-26T07:40:28;52084.00;;;-146.10;33.88
12763;BME280;6445;52.490;13.378;2023-04-26T07:42:54;52013.97;;;-146.10;36.19
12763;BME280;6445;52.490;13.378;2023-04-26T07:45:19;52029.97;;;-146.10;36.91
12763;BME280;6445;52.490;13.378;2023-04-26T07:47:45;51957.97;;;-146.10;38.41
12763;BME280;6445;52.490;13.378;2023-04-26T07:50:10;51999.97;;;-146.10;39.48
12763;BME280;6445;52.490;13.378;2023-04-26T07:52:36;52031.97;;;-146.10;37.03
12763;BME280;6445;52.490;13.378;2023-04-26T07:55:01;52023.97;;;-146.10;36.06
12763;BME280;6445;52.490;13.378;2023-04-26T07:57:27;52035.97;;;-146.10;35.81
12763;BME280;6445;52.490;13.378;2023-04-26T07:59:52;51973.97;;;-146.10;38.90
12763;BME280;6445;52.490;13.378;2023-04-26T08:02:17;51927.94;;;-146.10;41.14
12763;BME280;6445;52.490;13.378;2023-04-26T08:04:47;51901.94;;;-146.10;46.86
12763;BME280;6445;52.490;13.378;2023-04-26T08:07:17;51953.97;;;-146.10;43.38
12763;BME280;6445;52.490;13.378;2023-04-26T08:09:42;51905.94;;;-146.10;46.88
12763;BME280;6445;52.490;13.378;2023-04-26T08:12:07;51905.94;;;-146.10;50.26
12763;BME280;6445;52.490;13.378;2023-04-26T08:14:36;51875.94;;;-146.10;53.84
12763;BME280;6445;52.490;13.378;2023-04-26T08:17:02;51881.94;;;-146.10;53.38
12763;BME280;6445;52.490;13.378;2023-04-26T08:19:27;51823.94;;;-146.10;59.91
12763;BME280;6445;52.490;13.378;2023-04-26T08:21:55;51869.94;;;-146.10;63.98
12763;BME280;6445;52.490;13.378;2023-04-26T08:24:21;51855.94;;;-146.10;64.76
12763;BME280;6445;52.490;13.378;2023-04-26T08:26:46;51885.94;;;-146.10;57.08
12763;BME280;6445;52.490;13.378;2023-04-26T08:29:11;51919.94;;;-146.10;49.40
12763;BME280;6445;52.490;13.378;2023-04-26T08:31:37;51933.94;;;-146.10;46.62
12763;BME280;6445;52.490;13.378;2023-04-26T08:34:02;51889.94;;;-146.10;48.89
12763;BME280;6445;52.490;13.378;2023-04-26T08:36:27;51899.94;;;-146.10;50.45
12763;BME280;6445;52.490;13.378;2023-04-26T08:38:53;51887.94;;;-146.10;56.33
12763;BME280;6445;52.490;13.378;2023-04-26T08:41:21;51835.94;;;-146.10;59.17
12763;BME280;6445;52.490;13.378;2023-04-26T08:43:48;51845.94;;;-146.10;62.57
12763;BME280;6445;52.490;13.378;2023-04-26T08:46:14;51837.94;;;-146.10;61.38
12763;BME280;6445;52.490;13.378;2023-04-26T08:48:43;51841.94;;;-146.10;61.00
12763;BME280;6445;52.490;13.378;2023-04-26T08:51:11;51891.94;;;-146.10;55.53
12763;BME280;6445;52.490;13.378;2023-04-26T08:53:37;51961.97;;;-146.10;44.95
12763;BME280;6445;52.490;13.378;2023-04-26T08:56:03;52080.00;;;-146.10;37.33
12763;BME280;6445;52.490;13.378;2023-04-26T08:58:29;52108.00;;;-146.10;34.54
12763;BME280;6445;52.490;13.378;2023-04-26T09:00:54;52078.00;;;-146.10;34.07
12763;BME280;6445;52.490;13.378;2023-04-26T09:03:22;52055.97;;;-146.10;34.69
12763;BME280;6445;52.490;13.378;2023-04-26T09:05:47;51931.94;;;-146.10;39.62
12763;BME280;6445;52.490;13.378;2023-04-26T09:08:17;51907.94;;;-146.10;42.28
12763;BME280;6445;52.490;13.378;2023-04-26T09:10:43;51891.94;;;-146.10;44.48
12763;BME280;6445;52.490;13.378;2023-04-26T09:13:08;51909.94;;;-146.10;44.78
12763;BME280;6445;52.490;13.378;2023-04-26T09:15:35;51917.94;;;-146.10;44.93
12763;BME280;6445;52.490;13.378;2023-04-26T09:18:20;51885.94;;;-146.10;45.75
12763;BME280;6445;52.490;13.378;2023-04-26T09:21:07;51901.94;;;-146.10;45.79
12763;BME280;6445;52.490;13.378;2023-04-26T09:23:33;51953.97;;;-146.10;42.12
12763;BME280;6445;52.490;13.378;2023-04-26T09:26:18;51939.94;;;-146.10;39.15
12763;BME280;6445;52.490;13.378;2023-04-26T09:28:44;51899.94;;;-146.10;43.06
12763;BME280;6445;52.490;13.378;2023-04-26T09:31:10;51909.94;;;-146.10;44.19
12763;BME280;6445;52.490;13.378;2023-04-26T09:33:56;51919.94;;;-146.10;43.24
12763;BME280;6445;52.490;13.378;2023-04-26T09:36:21;51917.94;;;-146.10;43.93
12763;BME280;6445;52.490;13.378;2023-04-26T09:38:46;51897.94;;;-146.10;43.19
12763;BME280;6445;52.490;13.378;2023-04-26T09:41:12;51893.94;;;-146.10;43.64
12763;BME280;6445;52.490;13.378;2023-04-26T09:43:37;51881.94;;;-146.10;44.21
12763;BME280;6445;52.490;13.378;2023-04-26T09:46:03;51889.94;;;-146.10;45.22
12763;BME280;6445;52.490;13.378;2023-04-26T09:48:30;51931.94;;;-146.10;44.35
12763;BME280;6445;52.490;13.378;2023-04-26T09:53:29;52039.97;;;-146.10;36.45
12763;BME280;6445;52.490;13.378;2023-04-26T09:55:56;52035.97;;;-146.10;34.76
12763;BME280;6445;52.490;13.378;2023-04-26T09:58:22;51987.97;;;-146.10;36.06
12763;BME280;6445;52.490;13.378;2023-04-26T10:00:50;51975.97;;;-146.10;38.09
12763;BME280;6445;52.490;13.378;2023-04-26T10:03:17;51919.94;;;-146.10;38.95
12763;BME280;6445;52.490;13.378;2023-04-26T10:05:43;51885.94;;;-146.10;38.90
12763;BME280;6445;52.490;13.378;2023-04-26T10:08:08;51911.94;;;-146.10;38.53
12763;BME280;6445;52.490;13.378;2023-04-26T10:10:34;51915.94;;;-146.10;38.65
12763;BME280;6445;52.490;13.378;2023-04-26T10:13:00;51909.94;;;-146.10;40.14
12763;BME280;6445;52.490;13.378;2023-04-26T10:15:26;51895.94;;;-146.10;41.77
12763;BME280;6445;52.490;13.378;2023-04-26T10:17:52;51883.94;;;-146.10;41.16
12763;BME280;6445;52.490;13.378;2023-04-26T10:20:18;51941.94;;;-146.10;37.42
12763;BME280;6445;52.490;13.378;2023-04-26T10:22:50;52025.97;;;-146.10;34.63
12763;BME280;6445;52.490;13.378;2023-04-26T10:25:17;51995.97;;;-146.10;34.49
12763;BME280;6445;52.490;13.378;2023-04-26T10:30:09;51945.97;;;-146.10;36.67
12763;BME280;6445;52.490;13.378;2023-04-26T10:35:28;51881.94;;;-146.10;40.96
12763;BME280;6445;52.490;13.378;2023-04-26T10:42:49;51861.94;;;-146.10;43.09
12763;BME280;6445;52.490;13.378;2023-04-26T10:45:28;51851.94;;;-146.10;44.04
12763;BME280;6445;52.490;13.378;2023-04-26T10:48:28;51875.94;;;-146.10;43.93
12763;BME280;6445;52.490;13.378;2023-04-26T10:53:29;51909.94;;;-146.10;40.80
12763;BME280;6445;52.490;13.378;2023-04-26T10:55:55;51939.94;;;-146.10;39.17
12763;BME280;6445;52.490;13.378;2023-04-26T10:58:30;51927.94;;;-146.10;38.93
12763;BME280;6445;52.490;13.378;2023-04-26T11:01:10;51887.94;;;-146.10;40.29
12763;BME280;6445;52.490;13.378;2023-04-26T11:03:43;51903.94;;;-146.10;40.88
12763;BME280;6445;52.490;13.378;2023-04-26T11:06:25;51873.94;;;-146.10;41.15
12763;BME280;6445;52.490;13.378;2023-04-26T11:08:51;51877.94;;;-146.10;41.78
12763;BME280;6445;52.490;13.378;2023-04-26T11:11:17;51851.94;;;-146.10;42.38
12763;BME280;6445;52.490;13.378;2023-04-26T11:13:45;51831.94;;;-146.10;42.50
12763;BME280;6445;52.490;13.378;2023-04-26T11:16:15;51839.94;;;-146.10;43.42
12763;BME280;6445;52.490;13.378;2023-04-26T11:18:44;51845.94;;;-146.10;43.65
12763;BME280;6445;52.490;13.378;2023-04-26T11:21:12;51867.94;;;-146.10;43.66
12763;BME280;6445;52.490;13.378;2023-04-26T11:23:41;51897.94;;;-146.10;42.03
12763;BME280;6445;52.490;13.378;2023-04-26T11:26:07;51889.94;;;-146.10;40.59
12763;BME280;6445;52.490;13.378;2023-04-26T11:28:35;51901.94;;;-146.10;40.60
12763;BME280;6445;52.490;13.378;2023-04-26T11:31:02;51925.94;;;-146.10;39.40
12763;BME280;6445;52.490;13.378;2023-04-26T11:33:28;51927.94;;;-146.10;38.10
12763;BME280;6445;52.490;13.378;2023-04-26T11:35:55;51931.94;;;-146.10;37.95
12763;BME280;6445;52.490;13.378;2023-04-26T11:38:22;51927.94;;;-146.10;37.01
12763;BME280;6445;52.490;13.378;2023-04-26T11:40:54;51927.94;;;-146.10;37.62
12763;BME280;6445;52.490;13.378;2023-04-26T11:43:20;51901.94;;;-146.10;37.84
12763;BME280;6445;52.490;13.378;2023-04-26T11:45:45;51917.94;;;-146.10;39.29
12763;BME280;6445;52.490;13.378;2023-04-26T11:48:11;51877.94;;;-146.10;41.05
12763;BME280;6445;52.490;13.378;2023-04-26T11:50:37;51855.94;;;-146.10;42.74
12763;BME280;6445;52.490;13.378;2023-04-26T11:53:06;51877.94;;;-146.10;43.83
12763;BME280;6445;52.490;13.378;2023-04-26T11:55:33;51837.94;;;-146.10;44.97
12763;BME280;6445;52.490;13.378;2023-04-26T11:57:59;51845.94;;;-146.10;45.34
12763;BME280;6445;52.490;13.378;2023-04-26T12:00:25;51839.94;;;-146.10;44.78
12763;BME280;6445;52.490;13.378;2023-04-26T12:02:51;51863.94;;;-146.10;44.35
12763;BME280;6445;52.490;13.378;2023-04-26T12:05:28;51879.94;;;-146.10;41.27
12763;BME280;6445;52.490;13.378;2023-04-26T12:07:57;51915.94;;;-146.10;39.86
12763;BME280;6445;52.490;13.378;2023-04-26T12:10:25;51921.94;;;-146.10;38.76
12763;BME280;6445;52.490;13.378;2023-04-26T12:12:52;51927.94;;;-146.10;37.39
12763;BME280;6445;52.490;13.378;2023-04-26T12:15:23;51947.97;;;-146.10;36.74
12763;BME280;6445;52.490;13.378;2023-04-26T12:20:28;51913.94;;;-146.10;37.09
12763;BME280;6445;52.490;13.378;2023-04-26T12:25:31;51871.94;;;-146.10;39.27
12763;BME280;6445;52.490;13.378;2023-04-26T12:27:57;51869.94;;;-146.10;40.14
12763;BME280;6445;52.490;13.378;2023-04-26T12:30:24;51873.94;;;-146.10;41.54
12763;BME280;6445;52.490;13.378;2023-04-26T12:32:50;51859.94;;;-146.10;42.69
12763;BME280;6445;52.490;13.378;2023-04-26T12:35:15;51831.94;;;-146.10;45.18
12763;BME280;6445;52.490;13.378;2023-04-26T12:37:41;51835.94;;;-146.10;46.85
12763;BME280;6445;52.490;13.378;2023-04-26T12:40:06;51843.94;;;-146.10;52.78
12763;BME280;6445;52.490;13.378;2023-04-26T12:42:33;51831.94;;;-146.10;50.16
12763;BME280;6445;52.490;13.378;2023-04-26T12:44:58;51857.94;;;-146.10;50.95
12763;BME280;6445;52.490;13.378;2023-04-26T12:47:23;51889.94;;;-146.10;48.70
12763;BME280;6445;52.490;13.378;2023-04-26T12:49:49;51933.94;;;-146.10;43.52
12763;BME280;6445;52.490;13.378;2023-04-26T12:52:14;51961.97;;;-146.10;40.49